<?xml version="1.0" encoding="UTF-8" standalone="no" ?>
<gpx xmlns="http://www.topografix.com/GPX/1/1" xmlns:xsi="http://www.w3.org/2001/XMLSchema-instance" xsi:schemaLocation="http://www.topografix.com/GPX/1/1 http://www.topografix.com/GPX/1/1/gpx.xsd" version="1.1" creator="VisuGPX - https://www.visugpx.com">
  <metadata>
    <name>Rando LN</name>
  </metadata>
  <trk>
    <name><![CDATA[La Fage]]></name>
    <extensions>
      <line xmlns="http://www.topografix.com/GPX/gpx_style/0/2">
        <color>ff0019</color>
        <width>4</width>
      </line>
    </extensions>
    <trkseg>
      <trkpt lat="44.40882" lon="3.41345">
        <ele>938.708</ele>
        <time>2021-01-11T17:54:43Z</time>
      </trkpt>
      <trkpt lat="44.40882" lon="3.41345">
        <ele>938.708</ele>
        <time>2021-01-11T17:54:43Z</time>
      </trkpt>
      <trkpt lat="44.40882" lon="3.41345">
        <ele>938.708</ele>
        <time>2021-01-11T17:54:43Z</time>
      </trkpt>
      <trkpt lat="44.40802" lon="3.41577">
        <ele>940.121</ele>
        <time>2021-01-11T17:54:23Z</time>
      </trkpt>
      <trkpt lat="44.40753" lon="3.41594">
        <ele>940.229</ele>
        <time>2021-01-11T17:54:03Z</time>
      </trkpt>
      <trkpt lat="44.40698" lon="3.41645">
        <ele>943.266</ele>
        <time>2021-01-11T17:53:43Z</time>
      </trkpt>
      <trkpt lat="44.40673" lon="3.41705">
        <ele>947.569</ele>
        <time>2021-01-11T17:53:23Z</time>
      </trkpt>
      <trkpt lat="44.40778" lon="3.4168">
        <ele>955.877</ele>
        <time>2021-01-11T17:53:03Z</time>
      </trkpt>
      <trkpt lat="44.4079" lon="3.41688">
        <ele>958.185</ele>
        <time>2021-01-11T17:52:43Z</time>
      </trkpt>
      <trkpt lat="44.40784" lon="3.41705">
        <ele>959.753</ele>
        <time>2021-01-11T17:52:23Z</time>
      </trkpt>
      <trkpt lat="44.40753" lon="3.41723">
        <ele>959.354</ele>
        <time>2021-01-11T17:52:03Z</time>
      </trkpt>
      <trkpt lat="44.40716" lon="3.41766">
        <ele>962.924</ele>
        <time>2021-01-11T17:51:43Z</time>
      </trkpt>
      <trkpt lat="44.40661" lon="3.41929">
        <ele>974.15</ele>
        <time>2021-01-11T17:51:23Z</time>
      </trkpt>
      <trkpt lat="44.406" lon="3.42006">
        <ele>981.163</ele>
        <time>2021-01-11T17:51:03Z</time>
      </trkpt>
      <trkpt lat="44.40575" lon="3.4216">
        <ele>985.808</ele>
        <time>2021-01-11T17:50:43Z</time>
      </trkpt>
      <trkpt lat="44.40483" lon="3.42409">
        <ele>980.725</ele>
        <time>2021-01-11T17:50:23Z</time>
      </trkpt>
      <trkpt lat="44.40489" lon="3.42692">
        <ele>979.805</ele>
        <time>2021-01-11T17:50:03Z</time>
      </trkpt>
      <trkpt lat="44.40508" lon="3.42727">
        <ele>978.879</ele>
        <time>2021-01-11T17:49:43Z</time>
      </trkpt>
      <trkpt lat="44.4052" lon="3.42787">
        <ele>974.843</ele>
        <time>2021-01-11T17:49:23Z</time>
      </trkpt>
      <trkpt lat="44.40538" lon="3.42813">
        <ele>975.291</ele>
        <time>2021-01-11T17:49:03Z</time>
      </trkpt>
      <trkpt lat="44.40575" lon="3.43096">
        <ele>974.619</ele>
        <time>2021-01-11T17:48:43Z</time>
      </trkpt>
      <trkpt lat="44.40563" lon="3.43139">
        <ele>969.887</ele>
        <time>2021-01-11T17:48:23Z</time>
      </trkpt>
      <trkpt lat="44.40526" lon="3.43156">
        <ele>968.758</ele>
        <time>2021-01-11T17:48:03Z</time>
      </trkpt>
      <trkpt lat="44.40575" lon="3.43182">
        <ele>967.318</ele>
        <time>2021-01-11T17:47:43Z</time>
      </trkpt>
      <trkpt lat="44.40594" lon="3.43207">
        <ele>966.784</ele>
        <time>2021-01-11T17:47:23Z</time>
      </trkpt>
      <trkpt lat="44.40606" lon="3.43233">
        <ele>967.187</ele>
        <time>2021-01-11T17:47:03Z</time>
      </trkpt>
      <trkpt lat="44.40594" lon="3.43293">
        <ele>969.108</ele>
        <time>2021-01-11T17:46:43Z</time>
      </trkpt>
      <trkpt lat="44.40612" lon="3.43439">
        <ele>981.007</ele>
        <time>2021-01-11T17:46:23Z</time>
      </trkpt>
      <trkpt lat="44.40643" lon="3.43551">
        <ele>994.943</ele>
        <time>2021-01-11T17:46:03Z</time>
      </trkpt>
      <trkpt lat="44.40698" lon="3.43611">
        <ele>1002.213</ele>
        <time>2021-01-11T17:45:43Z</time>
      </trkpt>
      <trkpt lat="44.40808" lon="3.43825">
        <ele>1014.145</ele>
        <time>2021-01-11T17:45:23Z</time>
      </trkpt>
      <trkpt lat="44.40827" lon="3.4392">
        <ele>1017.043</ele>
        <time>2021-01-11T17:45:03Z</time>
      </trkpt>
      <trkpt lat="44.40821" lon="3.44074">
        <ele>1013.371</ele>
        <time>2021-01-11T17:44:43Z</time>
      </trkpt>
      <trkpt lat="44.40747" lon="3.44083">
        <ele>1008.989</ele>
        <time>2021-01-11T17:44:23Z</time>
      </trkpt>
      <trkpt lat="44.4071" lon="3.441">
        <ele>1007.99</ele>
        <time>2021-01-11T17:44:03Z</time>
      </trkpt>
      <trkpt lat="44.406" lon="3.44255">
        <ele>1006.44</ele>
        <time>2021-01-11T17:43:43Z</time>
      </trkpt>
      <trkpt lat="44.40563" lon="3.44358">
        <ele>1007.456</ele>
        <time>2021-01-11T17:43:23Z</time>
      </trkpt>
      <trkpt lat="44.40508" lon="3.44401">
        <ele>1009.859</ele>
        <time>2021-01-11T17:43:03Z</time>
      </trkpt>
      <trkpt lat="44.40502" lon="3.44512">
        <ele>1011.708</ele>
        <time>2021-01-11T17:42:43Z</time>
      </trkpt>
      <trkpt lat="44.40459" lon="3.44606">
        <ele>1012.51</ele>
        <time>2021-01-11T17:42:23Z</time>
      </trkpt>
      <trkpt lat="44.4044" lon="3.44684">
        <ele>1012.355</ele>
        <time>2021-01-11T17:42:03Z</time>
      </trkpt>
      <trkpt lat="44.40434" lon="3.44787">
        <ele>1014.234</ele>
        <time>2021-01-11T17:41:43Z</time>
      </trkpt>
      <trkpt lat="44.40471" lon="3.4483">
        <ele>1014.767</ele>
        <time>2021-01-11T17:41:23Z</time>
      </trkpt>
      <trkpt lat="44.40483" lon="3.44855">
        <ele>1016.055</ele>
        <time>2021-01-11T17:41:03Z</time>
      </trkpt>
      <trkpt lat="44.40483" lon="3.44898">
        <ele>1018.313</ele>
        <time>2021-01-11T17:40:43Z</time>
      </trkpt>
      <trkpt lat="44.40453" lon="3.4495">
        <ele>1020.721</ele>
        <time>2021-01-11T17:40:23Z</time>
      </trkpt>
      <trkpt lat="44.40446" lon="3.44984">
        <ele>1019.842</ele>
        <time>2021-01-11T17:40:03Z</time>
      </trkpt>
      <trkpt lat="44.40446" lon="3.45053">
        <ele>1020.652</ele>
        <time>2021-01-11T17:39:43Z</time>
      </trkpt>
      <trkpt lat="44.40465" lon="3.45121">
        <ele>1017.348</ele>
        <time>2021-01-11T17:39:23Z</time>
      </trkpt>
      <trkpt lat="44.40465" lon="3.45293">
        <ele>1022.861</ele>
        <time>2021-01-11T17:39:03Z</time>
      </trkpt>
      <trkpt lat="44.40496" lon="3.45559">
        <ele>1036.308</ele>
        <time>2021-01-11T17:38:43Z</time>
      </trkpt>
      <trkpt lat="44.40538" lon="3.458">
        <ele>1035.311</ele>
        <time>2021-01-11T17:38:23Z</time>
      </trkpt>
      <trkpt lat="44.40514" lon="3.46057">
        <ele>1031.056</ele>
        <time>2021-01-11T17:38:03Z</time>
      </trkpt>
      <trkpt lat="44.40545" lon="3.46109">
        <ele>1029.954</ele>
        <time>2021-01-11T17:37:43Z</time>
      </trkpt>
      <trkpt lat="44.40575" lon="3.46126">
        <ele>1029.15</ele>
        <time>2021-01-11T17:37:23Z</time>
      </trkpt>
      <trkpt lat="44.4063" lon="3.46254">
        <ele>1036.058</ele>
        <time>2021-01-11T17:37:03Z</time>
      </trkpt>
      <trkpt lat="44.40692" lon="3.46357">
        <ele>1038.116</ele>
        <time>2021-01-11T17:36:43Z</time>
      </trkpt>
      <trkpt lat="44.40704" lon="3.46392">
        <ele>1036.684</ele>
        <time>2021-01-11T17:36:23Z</time>
      </trkpt>
      <trkpt lat="44.40698" lon="3.4646">
        <ele>1036.625</ele>
        <time>2021-01-11T17:36:03Z</time>
      </trkpt>
      <trkpt lat="44.4071" lon="3.46572">
        <ele>1031.855</ele>
        <time>2021-01-11T17:35:43Z</time>
      </trkpt>
      <trkpt lat="44.40778" lon="3.46589">
        <ele>1025.081</ele>
        <time>2021-01-11T17:35:23Z</time>
      </trkpt>
      <trkpt lat="44.40839" lon="3.46649">
        <ele>1018.564</ele>
        <time>2021-01-11T17:35:03Z</time>
      </trkpt>
      <trkpt lat="44.40876" lon="3.46718">
        <ele>1019.208</ele>
        <time>2021-01-11T17:34:43Z</time>
      </trkpt>
      <trkpt lat="44.40876" lon="3.46761">
        <ele>1022.326</ele>
        <time>2021-01-11T17:34:23Z</time>
      </trkpt>
      <trkpt lat="44.40894" lon="3.46778">
        <ele>1022.642</ele>
        <time>2021-01-11T17:34:03Z</time>
      </trkpt>
      <trkpt lat="44.40949" lon="3.46752">
        <ele>1020.287</ele>
        <time>2021-01-11T17:33:43Z</time>
      </trkpt>
      <trkpt lat="44.41004" lon="3.46804">
        <ele>1025.033</ele>
        <time>2021-01-11T17:33:23Z</time>
      </trkpt>
      <trkpt lat="44.41207" lon="3.47113">
        <ele>1045.561</ele>
        <time>2021-01-11T17:33:03Z</time>
      </trkpt>
      <trkpt lat="44.41219" lon="3.47156">
        <ele>1043.719</ele>
        <time>2021-01-11T17:32:43Z</time>
      </trkpt>
      <trkpt lat="44.41231" lon="3.47242">
        <ele>1044.447</ele>
        <time>2021-01-11T17:32:23Z</time>
      </trkpt>
      <trkpt lat="44.41305" lon="3.47336">
        <ele>1044.138</ele>
        <time>2021-01-11T17:32:03Z</time>
      </trkpt>
      <trkpt lat="44.41391" lon="3.47396">
        <ele>1042.928</ele>
        <time>2021-01-11T17:31:43Z</time>
      </trkpt>
      <trkpt lat="44.41397" lon="3.47473">
        <ele>1042.144</ele>
        <time>2021-01-11T17:31:23Z</time>
      </trkpt>
      <trkpt lat="44.41286" lon="3.47636">
        <ele>1046.997</ele>
        <time>2021-01-11T17:31:03Z</time>
      </trkpt>
      <trkpt lat="44.41268" lon="3.47696">
        <ele>1044.608</ele>
        <time>2021-01-11T17:30:43Z</time>
      </trkpt>
      <trkpt lat="44.41286" lon="3.47808">
        <ele>1041.409</ele>
        <time>2021-01-11T17:30:23Z</time>
      </trkpt>
      <trkpt lat="44.41293" lon="3.4792">
        <ele>1038.854</ele>
        <time>2021-01-11T17:30:03Z</time>
      </trkpt>
      <trkpt lat="44.4128" lon="3.48005">
        <ele>1036.814</ele>
        <time>2021-01-11T17:29:43Z</time>
      </trkpt>
      <trkpt lat="44.41256" lon="3.48091">
        <ele>1032.338</ele>
        <time>2021-01-11T17:29:23Z</time>
      </trkpt>
      <trkpt lat="44.41164" lon="3.48177">
        <ele>1030.416</ele>
        <time>2021-01-11T17:29:03Z</time>
      </trkpt>
      <trkpt lat="44.41127" lon="3.48254">
        <ele>1027.144</ele>
        <time>2021-01-11T17:28:43Z</time>
      </trkpt>
      <trkpt lat="44.41115" lon="3.48332">
        <ele>1024.232</ele>
        <time>2021-01-11T17:28:23Z</time>
      </trkpt>
      <trkpt lat="44.40998" lon="3.48538">
        <ele>1028.043</ele>
        <time>2021-01-11T17:28:03Z</time>
      </trkpt>
      <trkpt lat="44.40943" lon="3.48675">
        <ele>1028.723</ele>
        <time>2021-01-11T17:27:43Z</time>
      </trkpt>
      <trkpt lat="44.40937" lon="3.48761">
        <ele>1028.149</ele>
        <time>2021-01-11T17:27:23Z</time>
      </trkpt>
      <trkpt lat="44.40949" lon="3.48872">
        <ele>1030.982</ele>
        <time>2021-01-11T17:27:03Z</time>
      </trkpt>
      <trkpt lat="44.40943" lon="3.48924">
        <ele>1032.208</ele>
        <time>2021-01-11T17:26:43Z</time>
      </trkpt>
      <trkpt lat="44.40968" lon="3.49035">
        <ele>1038.819</ele>
        <time>2021-01-11T17:26:23Z</time>
      </trkpt>
      <trkpt lat="44.40943" lon="3.49267">
        <ele>1043.681</ele>
        <time>2021-01-11T17:26:03Z</time>
      </trkpt>
      <trkpt lat="44.40943" lon="3.4949">
        <ele>1049.767</ele>
        <time>2021-01-11T17:25:43Z</time>
      </trkpt>
      <trkpt lat="44.40919" lon="3.4955">
        <ele>1050.246</ele>
        <time>2021-01-11T17:25:23Z</time>
      </trkpt>
      <trkpt lat="44.40827" lon="3.49894">
        <ele>1036.384</ele>
        <time>2021-01-11T17:25:03Z</time>
      </trkpt>
      <trkpt lat="44.40716" lon="3.50211">
        <ele>1026.922</ele>
        <time>2021-01-11T17:24:43Z</time>
      </trkpt>
      <trkpt lat="44.40545" lon="3.50572">
        <ele>1010.01</ele>
        <time>2021-01-11T17:24:23Z</time>
      </trkpt>
      <trkpt lat="44.40502" lon="3.50881">
        <ele>1002.211</ele>
        <time>2021-01-11T17:24:03Z</time>
      </trkpt>
      <trkpt lat="44.40459" lon="3.51044">
        <ele>999.151</ele>
        <time>2021-01-11T17:23:43Z</time>
      </trkpt>
      <trkpt lat="44.40459" lon="3.51112">
        <ele>996.037</ele>
        <time>2021-01-11T17:23:23Z</time>
      </trkpt>
      <trkpt lat="44.40496" lon="3.51207">
        <ele>993.22</ele>
        <time>2021-01-11T17:23:03Z</time>
      </trkpt>
      <trkpt lat="44.40502" lon="3.51258">
        <ele>992.008</ele>
        <time>2021-01-11T17:22:43Z</time>
      </trkpt>
      <trkpt lat="44.40502" lon="3.51361">
        <ele>989.209</ele>
        <time>2021-01-11T17:22:23Z</time>
      </trkpt>
      <trkpt lat="44.40606" lon="3.51404">
        <ele>998.781</ele>
        <time>2021-01-11T17:22:03Z</time>
      </trkpt>
      <trkpt lat="44.4063" lon="3.51396">
        <ele>1001.041</ele>
        <time>2021-01-11T17:21:43Z</time>
      </trkpt>
      <trkpt lat="44.40729" lon="3.5131">
        <ele>1007.463</ele>
        <time>2021-01-11T17:21:23Z</time>
      </trkpt>
      <trkpt lat="44.40833" lon="3.51267">
        <ele>1007.841</ele>
        <time>2021-01-11T17:21:03Z</time>
      </trkpt>
      <trkpt lat="44.41066" lon="3.51464">
        <ele>1023.639</ele>
        <time>2021-01-11T17:20:43Z</time>
      </trkpt>
      <trkpt lat="44.41066" lon="3.51516">
        <ele>1024.537</ele>
        <time>2021-01-11T17:20:23Z</time>
      </trkpt>
      <trkpt lat="44.41115" lon="3.5161">
        <ele>1025.018</ele>
        <time>2021-01-11T17:20:03Z</time>
      </trkpt>
      <trkpt lat="44.41158" lon="3.51645">
        <ele>1027.268</ele>
        <time>2021-01-11T17:19:43Z</time>
      </trkpt>
      <trkpt lat="44.41219" lon="3.5167">
        <ele>1027.064</ele>
        <time>2021-01-11T17:19:23Z</time>
      </trkpt>
      <trkpt lat="44.4128" lon="3.51756">
        <ele>1020.867</ele>
        <time>2021-01-11T17:19:03Z</time>
      </trkpt>
      <trkpt lat="44.41323" lon="3.52065">
        <ele>1022.008</ele>
        <time>2021-01-11T17:18:43Z</time>
      </trkpt>
      <trkpt lat="44.41348" lon="3.52151">
        <ele>1025.213</ele>
        <time>2021-01-11T17:18:23Z</time>
      </trkpt>
      <trkpt lat="44.41385" lon="3.52271">
        <ele>1028.176</ele>
        <time>2021-01-11T17:18:03Z</time>
      </trkpt>
      <trkpt lat="44.41483" lon="3.52486">
        <ele>1037.216</ele>
        <time>2021-01-11T17:17:43Z</time>
      </trkpt>
      <trkpt lat="44.41483" lon="3.52666">
        <ele>1040.763</ele>
        <time>2021-01-11T17:17:23Z</time>
      </trkpt>
      <trkpt lat="44.41532" lon="3.52846">
        <ele>1052.111</ele>
        <time>2021-01-11T17:17:03Z</time>
      </trkpt>
      <trkpt lat="44.41532" lon="3.53001">
        <ele>1063.849</ele>
        <time>2021-01-11T17:16:43Z</time>
      </trkpt>
      <trkpt lat="44.41544" lon="3.53275">
        <ele>1077.237</ele>
        <time>2021-01-11T17:16:23Z</time>
      </trkpt>
      <trkpt lat="44.41568" lon="3.53516">
        <ele>1087.938</ele>
        <time>2021-01-11T17:16:03Z</time>
      </trkpt>
      <trkpt lat="44.41556" lon="3.53541">
        <ele>1089.028</ele>
        <time>2021-01-11T17:15:43Z</time>
      </trkpt>
      <trkpt lat="44.41489" lon="3.53627">
        <ele>1091.584</ele>
        <time>2021-01-11T17:15:23Z</time>
      </trkpt>
      <trkpt lat="44.41507" lon="3.53636">
        <ele>1080.567</ele>
        <time>2021-01-11T17:15:03Z</time>
      </trkpt>
      <trkpt lat="44.41575" lon="3.53602">
        <ele>1076.208</ele>
        <time>2021-01-11T17:14:43Z</time>
      </trkpt>
      <trkpt lat="44.41618" lon="3.53602">
        <ele>1074.205</ele>
        <time>2021-01-11T17:14:23Z</time>
      </trkpt>
      <trkpt lat="44.41654" lon="3.53619">
        <ele>1073.632</ele>
        <time>2021-01-11T17:14:03Z</time>
      </trkpt>
      <trkpt lat="44.41746" lon="3.53713">
        <ele>1062.712</ele>
        <time>2021-01-11T17:13:43Z</time>
      </trkpt>
      <trkpt lat="44.4182" lon="3.53747">
        <ele>1066.018</ele>
        <time>2021-01-11T17:13:23Z</time>
      </trkpt>
      <trkpt lat="44.41857" lon="3.53816">
        <ele>1066.326</ele>
        <time>2021-01-11T17:13:03Z</time>
      </trkpt>
      <trkpt lat="44.41863" lon="3.54099">
        <ele>1046.634</ele>
        <time>2021-01-11T17:12:43Z</time>
      </trkpt>
      <trkpt lat="44.41844" lon="3.54245">
        <ele>1043.722</ele>
        <time>2021-01-11T17:12:23Z</time>
      </trkpt>
      <trkpt lat="44.41857" lon="3.54314">
        <ele>1041.653</ele>
        <time>2021-01-11T17:12:03Z</time>
      </trkpt>
      <trkpt lat="44.41881" lon="3.54365">
        <ele>1042.373</ele>
        <time>2021-01-11T17:11:43Z</time>
      </trkpt>
      <trkpt lat="44.41875" lon="3.54537">
        <ele>1054.319</ele>
        <time>2021-01-11T17:11:23Z</time>
      </trkpt>
      <trkpt lat="44.41949" lon="3.55061">
        <ele>1067.432</ele>
        <time>2021-01-11T17:11:03Z</time>
      </trkpt>
      <trkpt lat="44.41955" lon="3.55078">
        <ele>1068.508</ele>
        <time>2021-01-11T17:10:43Z</time>
      </trkpt>
      <trkpt lat="44.41973" lon="3.55189">
        <ele>1075.918</ele>
        <time>2021-01-11T17:10:23Z</time>
      </trkpt>
      <trkpt lat="44.41973" lon="3.55301">
        <ele>1077.144</ele>
        <time>2021-01-11T17:10:03Z</time>
      </trkpt>
      <trkpt lat="44.42004" lon="3.55516">
        <ele>1075.563</ele>
        <time>2021-01-11T17:09:43Z</time>
      </trkpt>
      <trkpt lat="44.42053" lon="3.55773">
        <ele>1085.085</ele>
        <time>2021-01-11T17:09:23Z</time>
      </trkpt>
      <trkpt lat="44.42249" lon="3.55653">
        <ele>1078.533</ele>
        <time>2021-01-11T17:09:03Z</time>
      </trkpt>
      <trkpt lat="44.42304" lon="3.55653">
        <ele>1076.681</ele>
        <time>2021-01-11T17:08:43Z</time>
      </trkpt>
      <trkpt lat="44.42414" lon="3.55696">
        <ele>1066.569</ele>
        <time>2021-01-11T17:08:23Z</time>
      </trkpt>
      <trkpt lat="44.42598" lon="3.55541">
        <ele>1045.91</ele>
        <time>2021-01-11T17:08:03Z</time>
      </trkpt>
      <trkpt lat="44.42703" lon="3.55438">
        <ele>1046.57</ele>
        <time>2021-01-11T17:07:43Z</time>
      </trkpt>
      <trkpt lat="44.42733" lon="3.5543">
        <ele>1048.346</ele>
        <time>2021-01-11T17:07:23Z</time>
      </trkpt>
      <trkpt lat="44.4277" lon="3.55447">
        <ele>1053.739</ele>
        <time>2021-01-11T17:07:03Z</time>
      </trkpt>
      <trkpt lat="44.42807" lon="3.55481">
        <ele>1060.208</ele>
        <time>2021-01-11T17:06:43Z</time>
      </trkpt>
      <trkpt lat="44.42923" lon="3.55455">
        <ele>1061.513</ele>
        <time>2021-01-11T17:06:23Z</time>
      </trkpt>
      <trkpt lat="44.42991" lon="3.55473">
        <ele>1056.849</ele>
        <time>2021-01-11T17:06:03Z</time>
      </trkpt>
      <trkpt lat="44.43021" lon="3.55507">
        <ele>1053.637</ele>
        <time>2021-01-11T17:05:43Z</time>
      </trkpt>
      <trkpt lat="44.43021" lon="3.55558">
        <ele>1054.884</ele>
        <time>2021-01-11T17:05:23Z</time>
      </trkpt>
      <trkpt lat="44.42972" lon="3.55764">
        <ele>1063.562</ele>
        <time>2021-01-11T17:05:03Z</time>
      </trkpt>
      <trkpt lat="44.42972" lon="3.55799">
        <ele>1062.32</ele>
        <time>2021-01-11T17:04:43Z</time>
      </trkpt>
      <trkpt lat="44.42978" lon="3.55833">
        <ele>1059.858</ele>
        <time>2021-01-11T17:04:23Z</time>
      </trkpt>
      <trkpt lat="44.43009" lon="3.55902">
        <ele>1053.969</ele>
        <time>2021-01-11T17:04:03Z</time>
      </trkpt>
      <trkpt lat="44.43046" lon="3.55936">
        <ele>1051.239</ele>
        <time>2021-01-11T17:03:43Z</time>
      </trkpt>
      <trkpt lat="44.43144" lon="3.55953">
        <ele>1050.075</ele>
        <time>2021-01-11T17:03:23Z</time>
      </trkpt>
      <trkpt lat="44.43162" lon="3.55902">
        <ele>1047.638</ele>
        <time>2021-01-11T17:03:03Z</time>
      </trkpt>
      <trkpt lat="44.43162" lon="3.55773">
        <ele>1026.708</ele>
        <time>2021-01-11T17:02:43Z</time>
      </trkpt>
      <trkpt lat="44.43273" lon="3.55722">
        <ele>1035.017</ele>
        <time>2021-01-11T17:02:23Z</time>
      </trkpt>
      <trkpt lat="44.43346" lon="3.55704">
        <ele>1036.289</ele>
        <time>2021-01-11T17:02:03Z</time>
      </trkpt>
      <trkpt lat="44.43524" lon="3.55807">
        <ele>1040.128</ele>
        <time>2021-01-11T17:01:43Z</time>
      </trkpt>
      <trkpt lat="44.43579" lon="3.55867">
        <ele>1050.635</ele>
        <time>2021-01-11T17:01:23Z</time>
      </trkpt>
      <trkpt lat="44.43653" lon="3.55902">
        <ele>1056.233</ele>
        <time>2021-01-11T17:01:03Z</time>
      </trkpt>
      <trkpt lat="44.43836" lon="3.56031">
        <ele>1073.931</ele>
        <time>2021-01-11T17:00:43Z</time>
      </trkpt>
      <trkpt lat="44.43928" lon="3.56048">
        <ele>1077.929</ele>
        <time>2021-01-11T17:00:23Z</time>
      </trkpt>
      <trkpt lat="44.44094" lon="3.56288">
        <ele>1121.27</ele>
        <time>2021-01-11T17:00:03Z</time>
      </trkpt>
      <trkpt lat="44.44124" lon="3.56305">
        <ele>1119.51</ele>
        <time>2021-01-11T16:59:43Z</time>
      </trkpt>
      <trkpt lat="44.44173" lon="3.56314">
        <ele>1109.266</ele>
        <time>2021-01-11T16:59:23Z</time>
      </trkpt>
      <trkpt lat="44.44186" lon="3.56348">
        <ele>1112.859</ele>
        <time>2021-01-11T16:59:03Z</time>
      </trkpt>
      <trkpt lat="44.44186" lon="3.56365">
        <ele>1114.708</ele>
        <time>2021-01-11T16:58:43Z</time>
      </trkpt>
      <trkpt lat="44.44075" lon="3.56511">
        <ele>1144.717</ele>
        <time>2021-01-11T16:58:23Z</time>
      </trkpt>
      <trkpt lat="44.43996" lon="3.5664">
        <ele>1152.37</ele>
        <time>2021-01-11T16:58:03Z</time>
      </trkpt>
      <trkpt lat="44.43732" lon="3.56923">
        <ele>1159.138</ele>
        <time>2021-01-11T16:57:43Z</time>
      </trkpt>
      <trkpt lat="44.43285" lon="3.57558">
        <ele>1159.446</ele>
        <time>2021-01-11T16:57:23Z</time>
      </trkpt>
      <trkpt lat="44.43199" lon="3.57704">
        <ele>1151.344</ele>
        <time>2021-01-11T16:57:03Z</time>
      </trkpt>
      <trkpt lat="44.43175" lon="3.57782">
        <ele>1143.512</ele>
        <time>2021-01-11T16:56:43Z</time>
      </trkpt>
      <trkpt lat="44.43125" lon="3.57867">
        <ele>1131.31</ele>
        <time>2021-01-11T16:56:23Z</time>
      </trkpt>
      <trkpt lat="44.43101" lon="3.57893">
        <ele>1126.061</ele>
        <time>2021-01-11T16:56:03Z</time>
      </trkpt>
      <trkpt lat="44.4304" lon="3.57927">
        <ele>1127.971</ele>
        <time>2021-01-11T16:55:43Z</time>
      </trkpt>
      <trkpt lat="44.4296" lon="3.57953">
        <ele>1125.437</ele>
        <time>2021-01-11T16:55:23Z</time>
      </trkpt>
      <trkpt lat="44.42923" lon="3.57979">
        <ele>1124.43</ele>
        <time>2021-01-11T16:55:03Z</time>
      </trkpt>
      <trkpt lat="44.42935" lon="3.5803">
        <ele>1127.008</ele>
        <time>2021-01-11T16:54:43Z</time>
      </trkpt>
      <trkpt lat="44.42954" lon="3.58065">
        <ele>1131.311</ele>
        <time>2021-01-11T16:54:23Z</time>
      </trkpt>
      <trkpt lat="44.4296" lon="3.58151">
        <ele>1139.047</ele>
        <time>2021-01-11T16:54:03Z</time>
      </trkpt>
      <trkpt lat="44.42972" lon="3.58176">
        <ele>1140.045</ele>
        <time>2021-01-11T16:53:43Z</time>
      </trkpt>
      <trkpt lat="44.42978" lon="3.58219">
        <ele>1140.484</ele>
        <time>2021-01-11T16:53:23Z</time>
      </trkpt>
      <trkpt lat="44.42954" lon="3.58382">
        <ele>1144.472</ele>
        <time>2021-01-11T16:53:03Z</time>
      </trkpt>
      <trkpt lat="44.42942" lon="3.58434">
        <ele>1139.92</ele>
        <time>2021-01-11T16:52:43Z</time>
      </trkpt>
      <trkpt lat="44.42874" lon="3.58451">
        <ele>1139.068</ele>
        <time>2021-01-11T16:52:23Z</time>
      </trkpt>
      <trkpt lat="44.42844" lon="3.58477">
        <ele>1137.419</ele>
        <time>2021-01-11T16:52:03Z</time>
      </trkpt>
      <trkpt lat="44.42795" lon="3.5858">
        <ele>1136.799</ele>
        <time>2021-01-11T16:51:43Z</time>
      </trkpt>
      <trkpt lat="44.42911" lon="3.58623">
        <ele>1132.355</ele>
        <time>2021-01-11T16:51:23Z</time>
      </trkpt>
      <trkpt lat="44.42966" lon="3.58708">
        <ele>1126.928</ele>
        <time>2021-01-11T16:51:03Z</time>
      </trkpt>
      <trkpt lat="44.42985" lon="3.58803">
        <ele>1122.908</ele>
        <time>2021-01-11T16:50:43Z</time>
      </trkpt>
      <trkpt lat="44.42997" lon="3.58691">
        <ele>1114.514</ele>
        <time>2021-01-11T16:50:23Z</time>
      </trkpt>
      <trkpt lat="44.43015" lon="3.58648">
        <ele>1111.568</ele>
        <time>2021-01-11T16:50:03Z</time>
      </trkpt>
      <trkpt lat="44.43034" lon="3.5864">
        <ele>1108.827</ele>
        <time>2021-01-11T16:49:43Z</time>
      </trkpt>
      <trkpt lat="44.43015" lon="3.58708">
        <ele>1107.614</ele>
        <time>2021-01-11T16:49:23Z</time>
      </trkpt>
      <trkpt lat="44.43027" lon="3.587">
        <ele>1103.132</ele>
        <time>2021-01-11T16:49:03Z</time>
      </trkpt>
      <trkpt lat="44.4304" lon="3.58717">
        <ele>1102.81</ele>
        <time>2021-01-11T16:48:43Z</time>
      </trkpt>
      <trkpt lat="44.4307" lon="3.58803">
        <ele>1119.418</ele>
        <time>2021-01-11T16:48:23Z</time>
      </trkpt>
      <trkpt lat="44.43089" lon="3.58794">
        <ele>1124.069</ele>
        <time>2021-01-11T16:48:03Z</time>
      </trkpt>
      <trkpt lat="44.43113" lon="3.58906">
        <ele>1140.919</ele>
        <time>2021-01-11T16:47:43Z</time>
      </trkpt>
      <trkpt lat="44.43107" lon="3.58957">
        <ele>1143.085</ele>
        <time>2021-01-11T16:47:23Z</time>
      </trkpt>
      <trkpt lat="44.43125" lon="3.59112">
        <ele>1155.688</ele>
        <time>2021-01-11T16:47:03Z</time>
      </trkpt>
      <trkpt lat="44.43156" lon="3.59172">
        <ele>1168.108</ele>
        <time>2021-01-11T16:46:43Z</time>
      </trkpt>
      <trkpt lat="44.43125" lon="3.59292">
        <ele>1175.414</ele>
        <time>2021-01-11T16:46:23Z</time>
      </trkpt>
      <trkpt lat="44.43138" lon="3.59318">
        <ele>1182.068</ele>
        <time>2021-01-11T16:46:03Z</time>
      </trkpt>
      <trkpt lat="44.43162" lon="3.59344">
        <ele>1190.127</ele>
        <time>2021-01-11T16:45:43Z</time>
      </trkpt>
      <trkpt lat="44.43181" lon="3.59429">
        <ele>1197.835</ele>
        <time>2021-01-11T16:45:23Z</time>
      </trkpt>
      <trkpt lat="44.43248" lon="3.59524">
        <ele>1201.953</ele>
        <time>2021-01-11T16:45:03Z</time>
      </trkpt>
      <trkpt lat="44.43266" lon="3.59541">
        <ele>1202.411</ele>
        <time>2021-01-11T16:44:43Z</time>
      </trkpt>
      <trkpt lat="44.4334" lon="3.59532">
        <ele>1212.859</ele>
        <time>2021-01-11T16:44:23Z</time>
      </trkpt>
    </trkseg>
  </trk>
</gpx>